Latest Weather Observations for Edinburgh

IDS60901

Issued at 7:31 am CST Friday 6 May 2016 (issued every 10 minutes, with the page automatically refreshed every 10 minutes)

About weather observations | Map of Adelaide area stations | Latest observations for Adelaide area | Other Formats
Station Details ID: 023083 Name: EDINBURGH RAAF Lat: -34.71 Lon: 138.62 Height: 16.54 m
Data from the previous 72 hours. | See also: Recent months at Edinburgh
Date/Time
CST
Tmp

°C
App
Tmp
°C
Dew
Point
°C
Rel
Hum
%
Delta-T

°C
Wind Press
QNH
hPa
Press
MSL
hPa
Rain
since
9 am
mm
Dir
 
Spd
km/h
Gust
km/h
Spd
kts
Gust
kts
06/07:30am 13.2 10.6 7.9 70 2.6 NE 11 13 6 7 1015.0 1015.0 0.0
06/07:00am 12.6 9.6 7.5 71 2.5 NE 13 15 7 8 1014.7 1014.7 0.0
06/06:30am 13.0 10.7 7.5 69 2.7 NE 9 11 5 6 1014.6 1014.5 0.0
06/06:00am 12.4 9.7 7.5 72 2.4 NE 11 13 6 7 1014.3 1014.2 0.0
06/05:30am 12.7 10.4 7.6 71 2.5 NE 9 11 5 6 1013.9 1013.8 0.0
06/05:00am 12.8 10.1 7.3 69 2.7 NE 11 15 6 8 1013.8 1013.7 0.0
06/04:30am 13.2 10.6 7.6 69 2.7 NE 11 13 6 7 1013.5 1013.4 0.0
06/04:00am 13.6 11.0 7.6 67 2.9 NNE 11 15 6 8 1013.3 1013.2 0.0
06/03:30am 13.1 10.3 7.1 67 2.9 NNE 11 15 6 8 1013.3 1013.2 0.0
06/03:00am 13.6 11.0 7.6 67 2.9 NE 11 13 6 7 1013.3 1013.2 0.0
06/02:30am 14.1 11.4 7.4 64 3.3 NE 11 15 6 8 1013.2 1013.1 0.0
06/02:00am 15.0 11.2 7.5 61 3.7 NE 17 20 9 11 1013.2 1013.1 0.0
06/01:30am 15.5 11.3 7.5 59 4.0 NNE 19 22 10 12 1013.1 1013.0 0.0
06/01:00am 16.0 11.9 7.7 58 4.2 NNE 19 24 10 13 1013.2 1013.1 0.0
06/12:30am 15.7 11.9 7.5 58 4.1 NNE 17 20 9 11 1012.9 1012.8 0.0
06/12:00am 14.9 11.6 7.9 63 3.5 NE 15 17 8 9 1012.7 1012.6 0.0
 
Date/Time
CST
Tmp

°C
App
Tmp
°C
Dew
Point
°C
Rel
Hum
%
Delta-T

°C
Wind Press
QNH
hPa
Press
MSL
hPa
Rain
since
9 am
mm
Dir
 
Spd
km/h
Gust
km/h
Spd
kts
Gust
kts
05/11:30pm 14.5 11.5 7.8 64 3.3 NNE 13 17 7 9 1012.8 1012.7 0.0
05/11:00pm 15.3 13.6 7.6 60 3.8 NE 6 9 3 5 1012.8 1012.7 0.0
05/10:30pm 17.0 13.6 7.6 54 4.7 NE 15 19 8 10 1012.6 1012.5 0.0
05/10:00pm 16.9 13.5 7.8 55 4.6 NE 15 19 8 10 1012.5 1012.4 0.0
05/09:30pm 17.5 13.8 8.1 54 4.8 NE 17 24 9 13 1012.7 1012.6 0.0
05/09:00pm 17.2 14.3 8.1 55 4.6 NE 13 17 7 9 1012.7 1012.6 0.0
05/08:30pm 17.4 14.2 8.3 55 4.7 NE 15 17 8 9 1012.5 1012.4 0.0
05/08:00pm 17.8 14.6 8.4 54 4.8 NE 15 17 8 9 1012.3 1012.2 0.0
05/07:30pm 18.1 15.3 8.4 53 5.0 NE 13 17 7 9 1012.2 1012.1 0.0
05/07:00pm 19.1 16.3 8.4 50 5.5 NE 13 17 7 9 1012.2 1012.1 0.0
05/06:30pm 19.4 16.6 8.7 50 5.6 NE 13 13 7 7 1012.2 1012.1 0.0
05/06:00pm 20.2 18.1 8.2 46 6.2 N 9 11 5 6 1012.1 1012.0 0.0
05/05:30pm 21.8 18.9 8.0 41 7.2 NNW 13 15 7 8 1011.9 1011.8 0.0
05/05:00pm 23.7 19.0 7.8 36 8.4 NW 22 28 12 15 1011.8 1011.7 0.0
05/04:30pm 24.3 19.5 7.4 34 8.9 NW 22 30 12 16 1011.8 1011.7 0.0
05/04:00pm 24.6 18.7 7.3 33 9.1 NW 28 37 15 20 1011.9 1011.8 0.0
05/03:30pm 25.2 19.9 6.9 31 9.6 NW 24 32 13 17 1011.9 1011.8 0.0
05/03:00pm 25.1 19.0 6.8 31 9.5 NW 28 33 15 18 1012.0 1011.9 0.0
05/02:30pm 25.0 19.0 7.2 32 9.3 NW 28 37 15 20 1012.1 1012.0 0.0
05/02:00pm 25.4 19.2 8.0 33 9.3 NW 30 39 16 21 1012.3 1012.2 0.0
05/01:30pm 25.0 18.9 8.1 34 9.0 NW 30 39 16 21 1012.5 1012.4 0.0
05/01:00pm 25.3 18.8 8.3 34 9.1 NNW 32 44 17 24 1012.7 1012.6 0.0
05/12:30pm 24.6 18.7 9.0 37 8.4 NNW 30 37 16 20 1013.4 1013.3 0.0
05/12:00pm 24.3 18.5 9.5 39 8.1 NNW 30 39 16 21 1013.8 1013.7 0.0
05/11:30am 24.0 17.9 9.6 40 7.8 NNW 32 43 17 23 1014.5 1014.4 0.0
05/11:00am 22.9 16.6 9.7 43 7.2 NNW 33 43 18 23 1015.0 1015.0 0.0
05/10:30am 21.8 16.7 9.3 45 6.7 NNW 26 32 14 17 1015.4 1015.4 0.0
05/10:00am 20.5 16.4 10.0 51 5.7 N 22 30 12 16 1015.7 1015.7 0.0
05/09:30am 18.6 14.5 10.2 58 4.5 NNE 22 26 12 14 1016.0 1016.0 0.0
05/09:00am 17.7 13.5 9.6 59 4.3 NNE 22 32 12 17 1016.1 1016.1 0.0
05/08:30am 16.0 11.7 9.2 64 3.5 NNE 22 35 12 19 1016.1 1016.1 0.0
05/08:00am 14.4 10.3 8.8 69 2.8 NE 20 26 11 14 1016.0 1016.0 0.0
05/07:30am 12.9 9.0 8.8 76 2.1 NE 19 28 10 15 1015.9 1015.9 0.0
05/07:00am 11.7 8.5 8.4 80 1.6 NE 15 17 8 9 1015.7 1015.7 0.0
05/06:30am 12.3 8.8 8.8 79 1.7 NE 17 20 9 11 1015.5 1015.5 0.0
05/06:00am 12.3 9.2 8.8 79 1.7 NE 15 20 8 11 1015.3 1015.3 0.0
05/05:30am 12.3 9.2 8.8 79 1.7 NE 15 19 8 10 1015.2 1015.2 0.0
05/05:00am 12.7 9.6 9.0 78 1.9 NE 15 17 8 9 1015.1 1015.1 0.0
05/04:30am 12.9 9.5 9.0 77 2.0 NNE 17 22 9 12 1015.1 1015.1 0.0
05/04:00am 13.1 9.7 9.0 76 2.1 NE 17 19 9 10 1015.0 1015.0 0.0
05/03:30am 13.7 10.7 9.2 74 2.3 NE 15 19 8 10 1015.1 1015.1 0.0
05/03:00am 14.7 12.6 9.7 72 2.6 NNE 11 15 6 8 1015.3 1015.3 0.0
05/02:30am 14.7 12.1 9.5 71 2.7 N 13 15 7 8 1015.5 1015.5 0.0
05/02:00am 15.5 13.0 9.6 68 3.1 N 13 19 7 10 1015.6 1015.6 0.0
05/01:30am 15.9 12.2 9.3 65 3.4 N 19 22 10 12 1015.7 1015.7 0.0
05/01:00am 17.4 13.8 9.8 61 4.0 NNW 19 24 10 13 1015.7 1015.7 0.0
05/12:30am 17.3 14.1 10.0 62 3.9 N 17 22 9 12 1015.8 1015.8 0.0
05/12:00am 17.2 14.8 10.1 63 3.8 N 13 20 7 11 1015.8 1015.8 0.0
 
Date/Time
CST
Tmp

°C
App
Tmp
°C
Dew
Point
°C
Rel
Hum
%
Delta-T

°C
Wind Press
QNH
hPa
Press
MSL
hPa
Rain
since
9 am
mm
Dir
 
Spd
km/h
Gust
km/h
Spd
kts
Gust
kts
04/11:30pm 17.2 14.4 10.1 63 3.8 N 15 19 8 10 1016.0 1016.0 0.0
04/11:00pm 17.0 14.3 10.4 65 3.5 N 15 19 8 10 1016.2 1016.2 0.0
04/10:30pm 16.8 14.1 10.4 66 3.4 N 15 19 8 10 1016.4 1016.4 0.0
04/10:00pm 16.6 14.3 10.5 67 3.2 N 13 17 7 9 1016.6 1016.6 0.0
04/09:30pm 16.3 14.0 10.6 69 3.0 NNE 13 15 7 8 1016.7 1016.7 0.0
04/09:00pm 16.3 14.4 10.6 69 3.0 NNE 11 13 6 7 1016.7 1016.7 0.0
04/08:30pm 16.7 15.1 10.3 66 3.4 N 9 13 5 7 1016.7 1016.7 0.0
04/08:00pm 16.4 14.9 10.7 69 3.0 N 9 9 5 5 1016.6 1016.6 0.0
04/07:30pm 16.7 15.1 10.3 66 3.4 N 9 11 5 6 1016.6 1016.6 0.0
04/07:00pm 16.8 15.2 10.2 65 3.5 N 9 11 5 6 1016.5 1016.5 0.0
04/06:30pm 16.9 15.3 10.1 64 3.6 N 9 11 5 6 1016.2 1016.2 0.0
04/06:00pm 17.1 15.0 9.8 62 3.8 NNW 11 13 6 7 1015.9 1015.9 0.0
04/05:30pm 17.4 14.4 9.3 59 4.2 NW 15 19 8 10 1015.8 1015.8 0.0
04/05:00pm 17.6 13.9 9.5 59 4.2 NW 19 24 10 13 1015.8 1015.8 0.0
04/04:30pm 17.7 13.9 9.8 60 4.2 WNW 20 24 11 13 1015.6 1015.6 0.0
04/04:00pm 17.9 13.3 9.8 59 4.3 WNW 24 30 13 16 1015.6 1015.6 0.0
04/03:30pm 18.1 13.5 9.7 58 4.4 WNW 24 32 13 17 1015.6 1015.6 0.0
04/03:00pm 18.7 13.4 10.0 57 4.6 NW 28 35 15 19 1015.6 1015.6 0.0
04/02:30pm 18.5 15.0 10.3 59 4.4 NW 19 26 10 14 1015.7 1015.7 0.0
04/02:00pm 17.1 13.4 11.4 69 3.1 W 22 33 12 18 1015.9 1015.9 0.0
04/01:30pm 16.9 13.6 11.6 71 2.9 W 20 26 11 14 1016.1 1016.1 0.0
04/01:00pm 16.1 13.8 11.9 76 2.3 WSW 15 22 8 12 1016.3 1016.3 0.0
04/12:30pm 16.3 13.2 11.5 73 2.6 WSW 19 24 10 13 1016.6 1016.6 0.0
04/12:00pm 16.3 12.9 11.2 72 2.7 WNW 20 30 11 16 1017.0 1017.0 0.0
04/11:30am 16.1 15.2 10.8 71 2.8 NW 6 11 3 6 1017.2 1017.2 0.0
04/11:00am 15.2 12.6 10.8 75 2.3 W 15 17 8 9 1017.6 1017.6 0.0
04/10:30am 14.7 10.7 10.5 76 2.2 WNW 22 24 12 13 1017.7 1017.7 0.0
04/10:00am 16.1 13.1 10.6 70 2.9 WNW 17 22 9 12 1017.6 1017.6 0.0
04/09:30am 16.1 13.9 10.8 71 2.8 NW 13 17 7 9 1017.5 1017.5 0.0
04/09:00am 15.2 13.1 11.2 77 2.1 NNW 13 15 7 8 1017.4 1017.4 -
04/08:30am 13.8 11.7 11.3 85 1.3 NNW 13 17 7 9 1017.2 1017.2 -
04/08:00am 12.4 9.7 10.3 87 1.1 NNW 15 17 8 9 1017.0 1017.0 -
04/07:30am 11.4 9.3 9.7 89 0.9 N 11 15 6 8 1016.7 1016.7 -
04/07:00am 10.5 8.9 8.8 89 0.8 NNE 7 9 4 5 1016.2 1016.2 -
04/06:30am 10.3 7.9 8.6 89 0.8 N 11 13 6 7 1015.7 1015.7 -
04/06:00am 12.4 11.2 9.6 83 1.4 SSW 6 7 3 4 1015.3 1015.3 -
04/05:30am 12.5 10.8 9.9 84 1.3 SSW 9 9 5 5 1015.1 1015.1 -
04/05:00am 13.1 10.2 9.7 80 1.7 WSW 15 20 8 11 1014.9 1014.9 -
04/04:30am 13.6 10.3 9.5 76 2.1 WSW 17 20 9 11 1014.6 1014.5 -
04/04:00am 14.1 10.6 10.1 77 2.1 WSW 19 24 10 13 1014.5 1014.4 -
04/03:30am 13.9 10.8 10.3 79 1.9 WSW 17 20 9 11 1014.4 1014.3 -
04/03:00am 13.4 10.7 10.4 82 1.6 WSW 15 20 8 11 1014.4 1014.3 0.0
04/02:30am 13.6 12.6 10.4 81 1.7 SSW 6 15 3 8 1014.3 1014.2 -
04/02:00am 13.9 13.8 10.9 82 1.6 SW 2 9 1 5 1014.1 1014.0 -
04/01:30am 14.2 11.2 10.6 79 1.9 WSW 17 26 9 14 1014.1 1014.0 -
04/01:00am 14.6 11.1 10.2 75 2.3 WSW 19 26 10 14 1014.0 1013.9 -
04/12:30am 14.1 10.9 10.1 77 2.1 W 17 22 9 12 1013.9 1013.8 -
04/12:00am 14.1 11.0 10.3 78 2.0 WSW 17 19 9 10 1014.0 1013.9 -
 
Date/Time
CST
Tmp

°C
App
Tmp
°C
Dew
Point
°C
Rel
Hum
%
Delta-T

°C
Wind Press
QNH
hPa
Press
MSL
hPa
Rain
since
9 am
mm
Dir
 
Spd
km/h
Gust
km/h
Spd
kts
Gust
kts
03/11:30pm 14.7 11.7 10.7 77 2.1 WSW 17 22 9 12 1013.9 1013.8 -
03/11:00pm 14.8 11.2 10.4 75 2.3 WSW 20 24 11 13 1013.8 1013.7 -
03/10:30pm 14.6 11.7 11.0 79 1.9 WSW 17 20 9 11 1013.9 1013.8 -
03/10:00pm 14.7 11.7 10.7 77 2.1 WSW 17 20 9 11 1013.7 1013.6 -
03/09:30pm 15.1 10.1 10.9 76 2.2 SW 28 33 15 18 1013.7 1013.6 -
03/09:00pm 15.2 9.9 10.0 71 2.7 WSW 28 33 15 18 1013.3 1013.2 1.0
03/08:30pm 14.8 11.2 10.4 75 2.3 WSW 20 30 11 16 1013.0 1012.9 -
03/08:00pm 15.3 10.9 10.5 73 2.5 WSW 24 28 13 15 1012.7 1012.6 -
03/07:30pm 15.4 12.3 11.6 78 2.0 WSW 19 26 10 14 1012.3 1012.2 -
03/07:00pm 15.1 13.3 12.2 83 1.6 WSW 13 17 7 9 1011.9 1011.8 -
03/06:30pm 15.2 11.1 11.6 79 1.9 WSW 24 32 13 17 1011.4 1011.3 -
03/06:00pm 14.9 10.4 11.5 80 1.8 WSW 26 30 14 16 1011.0 1010.9 -
03/05:30pm 14.6 10.1 11.4 81 1.7 WSW 26 33 14 18 1010.6 1010.5 -
03/05:08pm 14.3 8.9 12.3 88 1.1 SW 32 41 17 22 1010.4 1010.3 -
03/05:00pm 14.5 8.8 13.0 91 0.8 SW 35 46 19 25 1010.2 1010.1 -
03/04:49pm 14.2 8.1 11.9 86 1.2 SW 35 57 19 31 1010.0 1009.9 -
03/04:47pm 15.2 9.8 12.3 83 1.6 SW 32 56 17 30 1009.8 1009.7 -
03/04:30pm 15.8 10.6 12.7 82 1.7 WSW 32 44 17 24 1009.7 1009.6 -
03/04:00pm 15.5 9.3 13.7 89 1.0 SW 39 56 21 30 1009.1 1009.0 -
03/03:52pm 16.0 10.0 13.3 84 1.5 WSW 37 56 20 30 1009.0 1008.9 -
03/03:37pm 16.3 11.3 14.0 86 1.3 WSW 33 41 18 22 1008.7 1008.6 -
03/03:30pm 16.0 9.8 13.7 86 1.3 WSW 39 54 21 29 1008.5 1008.5 -
03/03:21pm 15.3 7.0 12.6 84 1.5 WSW 48 67 26 36 1008.3 1008.3 -
03/03:18pm 15.8 7.7 12.0 78 2.1 W 46 67 25 36 1008.2 1008.2 -
03/03:00pm 17.7 10.4 12.8 73 2.7 W 43 57 23 31 1008.1 1008.1 -
03/02:37pm 17.7 11.4 13.4 76 2.4 W 39 57 21 31 1007.8 1007.8 -
03/02:30pm 17.9 12.4 13.6 76 2.4 W 35 46 19 25 1007.7 1007.7 -
03/02:14pm 16.2 10.7 13.5 84 1.5 W 35 43 19 23 1007.7 1007.7 -
03/02:00pm 15.5 5.9 13.2 86 1.3 WSW 56 70 30 38 1007.8 1007.8 -
03/01:47pm 19.3 11.1 11.8 62 4.1 W 46 67 25 36 1007.3 1007.3 -
03/10:30am 17.6 12.8 14.7 83 1.7 WNW 33 46 18 25 1008.0 1008.0 0.2
03/10:21am 17.0 12.0 15.0 88 1.2 NW 35 48 19 26 1008.1 1008.1 0.2
03/10:00am 18.0 13.1 13.7 76 2.4 NW 32 46 17 25 1007.9 1007.9 0.2
03/09:32am 16.5 10.6 13.6 83 1.6 NW 37 50 20 27 1008.2 1008.2 0.2
03/09:30am 16.4 10.5 13.5 83 1.6 NW 37 50 20 27 1008.1 1008.1 0.2
03/09:14am 15.8 9.6 12.7 82 1.7 NW 37 50 20 27 1008.1 1008.1 0.0
03/09:00am 16.0 9.7 12.2 78 2.1 NW 37 52 20 28 1007.8 1007.8 0.0
03/08:30am 15.8 9.3 11.6 76 2.3 NW 37 50 20 27 1007.6 1007.6 0.0
03/08:00am 16.0 11.1 11.2 73 2.6 NW 28 39 15 21 1007.7 1007.7 0.0

Latest Capital City Observations: Canberra | Sydney | Melbourne | Brisbane | Adelaide | Perth | Hobart | Darwin

Other Formats:

Comma delimited format used in spreadsheet applications
http://www.bom.gov.au/fwo/IDS60901/IDS60901.95676.axf

JavaScript Object Notation format (JSON) in row-major order
http://www.bom.gov.au/fwo/IDS60901/IDS60901.95676.json